sensor_id;sensor_type;location;lat;lon;timestamp;P1;durP1;ratioP1;P2;durP2;ratioP2
23058;SDS011;30585;51.502;7.218;2024-03-23T00:53:56;5.10;;;1.47;;
23058;SDS011;30585;51.502;7.218;2024-03-23T00:56:21;9.83;;;2.40;;
23058;SDS011;30585;51.502;7.218;2024-03-23T00:58:49;7.60;;;1.23;;
23058;SDS011;30585;51.502;7.218;2024-03-23T01:01:15;6.80;;;1.60;;
23058;SDS011;30585;51.502;7.218;2024-03-23T01:03:42;6.90;;;1.43;;
23058;SDS011;30585;51.502;7.218;2024-03-23T01:06:08;6.97;;;1.70;;
23058;SDS011;30585;51.502;7.218;2024-03-23T01:08:34;4.00;;;1.60;;
23058;SDS011;30585;51.502;7.218;2024-03-23T01:11:02;5.13;;;1.20;;
23058;SDS011;30585;51.502;7.218;2024-03-23T01:13:29;3.80;;;1.43;;
23058;SDS011;30585;51.502;7.218;2024-03-23T01:15:55;2.13;;;1.10;;
23058;SDS011;30585;51.502;7.218;2024-03-23T01:18:23;7.50;;;1.47;;
23058;SDS011;30585;51.502;7.218;2024-03-23T01:20:49;2.77;;;1.47;;
23058;SDS011;30585;51.502;7.218;2024-03-23T01:23:16;7.73;;;1.30;;
23058;SDS011;30585;51.502;7.218;2024-03-23T01:25:42;7.60;;;1.63;;
23058;SDS011;30585;51.502;7.218;2024-03-23T01:28:10;3.37;;;0.97;;
23058;SDS011;30585;51.502;7.218;2024-03-23T01:30:36;2.90;;;1.30;;
23058;SDS011;30585;51.502;7.218;2024-03-23T01:33:03;5.07;;;1.83;;
23058;SDS011;30585;51.502;7.218;2024-03-23T01:35:29;5.07;;;1.13;;
23058;SDS011;30585;51.502;7.218;2024-03-23T01:37:55;4.73;;;0.90;;
23058;SDS011;30585;51.502;7.218;2024-03-23T01:40:21;2.37;;;1.03;;
23058;SDS011;30585;51.502;7.218;2024-03-23T01:42:55;5.40;;;0.80;;
23058;SDS011;30585;51.502;7.218;2024-03-23T01:45:22;2.13;;;1.10;;
23058;SDS011;30585;51.502;7.218;2024-03-23T01:47:49;5.77;;;1.10;;
23058;SDS011;30585;51.502;7.218;2024-03-23T01:50:16;5.30;;;0.97;;
23058;SDS011;30585;51.502;7.218;2024-03-23T01:52:43;10.03;;;1.27;;
23058;SDS011;30585;51.502;7.218;2024-03-23T01:55:09;6.20;;;1.07;;
23058;SDS011;30585;51.502;7.218;2024-03-23T01:57:36;4.47;;;0.87;;
23058;SDS011;30585;51.502;7.218;2024-03-23T02:00:03;2.17;;;1.20;;
23058;SDS011;30585;51.502;7.218;2024-03-23T02:02:31;5.43;;;1.30;;
23058;SDS011;30585;51.502;7.218;2024-03-23T02:04:57;8.73;;;1.60;;
23058;SDS011;30585;51.502;7.218;2024-03-23T02:07:24;2.93;;;1.20;;
23058;SDS011;30585;51.502;7.218;2024-03-23T02:09:50;3.53;;;1.37;;
23058;SDS011;30585;51.502;7.218;2024-03-23T02:12:17;6.03;;;1.60;;
23058;SDS011;30585;51.502;7.218;2024-03-23T02:14:43;4.00;;;1.80;;
23058;SDS011;30585;51.502;7.218;2024-03-23T02:17:10;4.60;;;1.33;;
23058;SDS011;30585;51.502;7.218;2024-03-23T02:19:37;8.63;;;1.10;;
23058;SDS011;30585;51.502;7.218;2024-03-23T02:22:04;3.80;;;1.00;;
23058;SDS011;30585;51.502;7.218;2024-03-23T02:24:31;0.97;;;0.60;;
23058;SDS011;30585;51.502;7.218;2024-03-23T02:26:59;2.67;;;1.23;;
23058;SDS011;30585;51.502;7.218;2024-03-23T02:29:25;4.20;;;0.93;;
23058;SDS011;30585;51.502;7.218;2024-03-23T02:31:52;2.10;;;0.80;;
23058;SDS011;30585;51.502;7.218;2024-03-23T02:34:17;3.50;;;0.97;;
23058;SDS011;30585;51.502;7.218;2024-03-23T02:36:44;1.60;;;0.93;;
23058;SDS011;30585;51.502;7.218;2024-03-23T02:39:10;1.43;;;1.00;;
23058;SDS011;30585;51.502;7.218;2024-03-23T02:41:38;2.10;;;1.13;;
23058;SDS011;30585;51.502;7.218;2024-03-23T02:44:04;3.47;;;1.10;;
23058;SDS011;30585;51.502;7.218;2024-03-23T02:46:31;6.90;;;1.03;;
23058;SDS011;30585;51.502;7.218;2024-03-23T02:48:57;2.90;;;0.93;;
23058;SDS011;30585;51.502;7.218;2024-03-23T02:51:24;1.00;;;0.80;;
23058;SDS011;30585;51.502;7.218;2024-03-23T02:53:50;1.13;;;0.87;;
23058;SDS011;30585;51.502;7.218;2024-03-23T02:56:16;7.50;;;1.10;;
23058;SDS011;30585;51.502;7.218;2024-03-23T02:58:44;1.73;;;0.87;;
23058;SDS011;30585;51.502;7.218;2024-03-23T03:01:10;3.13;;;1.20;;
23058;SDS011;30585;51.502;7.218;2024-03-23T03:03:36;5.83;;;0.90;;
23058;SDS011;30585;51.502;7.218;2024-03-23T03:06:03;4.00;;;0.97;;
23058;SDS011;30585;51.502;7.218;2024-03-23T03:08:29;4.33;;;0.67;;
23058;SDS011;30585;51.502;7.218;2024-03-23T03:10:56;2.10;;;0.70;;
23058;SDS011;30585;51.502;7.218;2024-03-23T03:13:22;0.70;;;0.70;;
23058;SDS011;30585;51.502;7.218;2024-03-23T03:15:50;0.53;;;0.50;;
23058;SDS011;30585;51.502;7.218;2024-03-23T03:18:15;1.93;;;1.37;;
23058;SDS011;30585;51.502;7.218;2024-03-23T03:20:42;2.70;;;1.00;;
23058;SDS011;30585;51.502;7.218;2024-03-23T03:23:09;0.90;;;0.60;;
23058;SDS011;30585;51.502;7.218;2024-03-23T03:25:36;7.70;;;1.07;;
23058;SDS011;30585;51.502;7.218;2024-03-23T03:28:01;3.83;;;1.47;;
23058;SDS011;30585;51.502;7.218;2024-03-23T03:30:30;2.20;;;1.10;;
23058;SDS011;30585;51.502;7.218;2024-03-23T03:32:57;3.03;;;1.47;;
23058;SDS011;30585;51.502;7.218;2024-03-23T03:35:24;8.47;;;1.00;;
23058;SDS011;30585;51.502;7.218;2024-03-23T03:37:50;0.93;;;0.50;;
23058;SDS011;30585;51.502;7.218;2024-03-23T03:40:16;3.83;;;0.97;;
23058;SDS011;30585;51.502;7.218;2024-03-23T03:42:42;2.73;;;0.60;;
23058;SDS011;30585;51.502;7.218;2024-03-23T03:45:09;0.80;;;0.60;;
23058;SDS011;30585;51.502;7.218;2024-03-23T03:47:35;2.47;;;1.00;;
23058;SDS011;30585;51.502;7.218;2024-03-23T03:50:04;0.63;;;0.60;;
23058;SDS011;30585;51.502;7.218;2024-03-23T03:52:30;2.60;;;1.00;;
23058;SDS011;30585;51.502;7.218;2024-03-23T03:55:00;3.53;;;1.37;;
23058;SDS011;30585;51.502;7.218;2024-03-23T03:57:27;1.77;;;0.67;;
23058;SDS011;30585;51.502;7.218;2024-03-23T03:59:54;3.07;;;1.17;;
23058;SDS011;30585;51.502;7.218;2024-03-23T04:02:20;1.27;;;0.73;;
23058;SDS011;30585;51.502;7.218;2024-03-23T04:04:47;0.80;;;0.60;;
23058;SDS011;30585;51.502;7.218;2024-03-23T04:07:14;7.03;;;1.23;;
23058;SDS011;30585;51.502;7.218;2024-03-23T04:09:42;1.33;;;0.80;;
23058;SDS011;30585;51.502;7.218;2024-03-23T04:12:08;4.80;;;0.80;;
23058;SDS011;30585;51.502;7.218;2024-03-23T04:14:35;7.10;;;1.20;;
23058;SDS011;30585;51.502;7.218;2024-03-23T04:17:01;0.60;;;0.40;;
23058;SDS011;30585;51.502;7.218;2024-03-23T04:19:28;2.63;;;0.93;;
23058;SDS011;30585;51.502;7.218;2024-03-23T04:21:53;3.57;;;0.80;;
23058;SDS011;30585;51.502;7.218;2024-03-23T04:24:21;3.50;;;0.90;;
23058;SDS011;30585;51.502;7.218;2024-03-23T04:26:48;7.50;;;1.43;;
23058;SDS011;30585;51.502;7.218;2024-03-23T04:29:14;6.20;;;0.80;;
23058;SDS011;30585;51.502;7.218;2024-03-23T04:31:40;3.07;;;0.60;;
23058;SDS011;30585;51.502;7.218;2024-03-23T04:34:07;1.53;;;0.57;;
23058;SDS011;30585;51.502;7.218;2024-03-23T04:36:33;5.33;;;1.60;;
23058;SDS011;30585;51.502;7.218;2024-03-23T04:38:59;4.63;;;1.07;;
23058;SDS011;30585;51.502;7.218;2024-03-23T04:41:29;5.60;;;2.17;;
23058;SDS011;30585;51.502;7.218;2024-03-23T04:43:56;6.73;;;1.70;;
23058;SDS011;30585;51.502;7.218;2024-03-23T04:46:23;2.73;;;1.03;;
23058;SDS011;30585;51.502;7.218;2024-03-23T04:48:49;2.57;;;0.90;;
23058;SDS011;30585;51.502;7.218;2024-03-23T04:51:20;2.63;;;0.80;;
23058;SDS011;30585;51.502;7.218;2024-03-23T04:53:47;3.73;;;1.70;;
23058;SDS011;30585;51.502;7.218;2024-03-23T04:56:14;2.03;;;1.07;;
23058;SDS011;30585;51.502;7.218;2024-03-23T04:58:41;3.17;;;1.73;;
23058;SDS011;30585;51.502;7.218;2024-03-23T05:01:09;4.47;;;1.13;;
23058;SDS011;30585;51.502;7.218;2024-03-23T05:03:35;7.63;;;1.70;;
23058;SDS011;30585;51.502;7.218;2024-03-23T05:06:02;5.40;;;1.47;;
23058;SDS011;30585;51.502;7.218;2024-03-23T05:08:28;12.27;;;2.23;;
23058;SDS011;30585;51.502;7.218;2024-03-23T05:10:55;7.67;;;1.40;;
23058;SDS011;30585;51.502;7.218;2024-03-23T05:13:21;3.97;;;1.10;;
23058;SDS011;30585;51.502;7.218;2024-03-23T05:15:52;2.80;;;1.00;;
23058;SDS011;30585;51.502;7.218;2024-03-23T05:18:18;3.80;;;1.23;;
23058;SDS011;30585;51.502;7.218;2024-03-23T05:20:45;9.40;;;1.80;;
23058;SDS011;30585;51.502;7.218;2024-03-23T05:23:10;2.90;;;1.40;;
23058;SDS011;30585;51.502;7.218;2024-03-23T05:25:37;7.43;;;1.63;;
23058;SDS011;30585;51.502;7.218;2024-03-23T05:28:03;1.90;;;1.00;;
23058;SDS011;30585;51.502;7.218;2024-03-23T05:30:30;4.53;;;1.43;;
23058;SDS011;30585;51.502;7.218;2024-03-23T05:32:57;3.27;;;1.40;;
23058;SDS011;30585;51.502;7.218;2024-03-23T05:35:24;2.17;;;1.10;;
23058;SDS011;30585;51.502;7.218;2024-03-23T05:37:50;1.23;;;0.97;;
23058;SDS011;30585;51.502;7.218;2024-03-23T05:40:17;2.83;;;1.37;;
23058;SDS011;30585;51.502;7.218;2024-03-23T05:42:42;2.63;;;1.43;;
23058;SDS011;30585;51.502;7.218;2024-03-23T05:45:09;1.47;;;1.27;;
23058;SDS011;30585;51.502;7.218;2024-03-23T05:47:36;2.83;;;1.63;;
23058;SDS011;30585;51.502;7.218;2024-03-23T05:50:05;1.57;;;1.20;;
23058;SDS011;30585;51.502;7.218;2024-03-23T05:52:31;2.80;;;1.70;;
23058;SDS011;30585;51.502;7.218;2024-03-23T05:54:58;10.77;;;3.30;;
23058;SDS011;30585;51.502;7.218;2024-03-23T05:57:24;4.63;;;2.70;;
23058;SDS011;30585;51.502;7.218;2024-03-23T05:59:51;5.13;;;3.00;;
23058;SDS011;30585;51.502;7.218;2024-03-23T06:02:17;5.00;;;3.77;;
23058;SDS011;30585;51.502;7.218;2024-03-23T06:04:45;5.83;;;3.30;;
23058;SDS011;30585;51.502;7.218;2024-03-23T06:07:12;3.97;;;2.53;;
23058;SDS011;30585;51.502;7.218;2024-03-23T06:09:39;9.10;;;4.07;;
23058;SDS011;30585;51.502;7.218;2024-03-23T06:12:05;5.07;;;2.87;;
23058;SDS011;30585;51.502;7.218;2024-03-23T06:14:32;6.10;;;3.93;;
23058;SDS011;30585;51.502;7.218;2024-03-23T06:16:58;4.70;;;2.93;;
23058;SDS011;30585;51.502;7.218;2024-03-23T06:19:25;4.07;;;2.53;;
23058;SDS011;30585;51.502;7.218;2024-03-23T06:21:52;8.63;;;2.33;;
23058;SDS011;30585;51.502;7.218;2024-03-23T06:24:21;7.60;;;2.67;;
23058;SDS011;30585;51.502;7.218;2024-03-23T06:26:49;14.73;;;3.20;;
23058;SDS011;30585;51.502;7.218;2024-03-23T06:29:16;6.40;;;2.63;;
23058;SDS011;30585;51.502;7.218;2024-03-23T06:31:41;17.93;;;3.73;;
23058;SDS011;30585;51.502;7.218;2024-03-23T06:34:08;3.10;;;2.13;;
23058;SDS011;30585;51.502;7.218;2024-03-23T06:36:34;2.73;;;2.07;;
23058;SDS011;30585;51.502;7.218;2024-03-23T06:39:03;14.07;;;4.23;;
23058;SDS011;30585;51.502;7.218;2024-03-23T06:41:31;4.53;;;3.73;;
23058;SDS011;30585;51.502;7.218;2024-03-23T06:43:57;6.50;;;2.50;;
23058;SDS011;30585;51.502;7.218;2024-03-23T06:46:23;7.73;;;3.47;;
23058;SDS011;30585;51.502;7.218;2024-03-23T06:48:50;10.37;;;3.87;;
23058;SDS011;30585;51.502;7.218;2024-03-23T06:51:16;4.93;;;2.93;;
23058;SDS011;30585;51.502;7.218;2024-03-23T06:53:42;3.80;;;2.43;;
23058;SDS011;30585;51.502;7.218;2024-03-23T06:56:08;7.90;;;2.67;;
23058;SDS011;30585;51.502;7.218;2024-03-23T06:58:36;6.40;;;2.87;;
23058;SDS011;30585;51.502;7.218;2024-03-23T07:01:02;4.90;;;1.90;;
23058;SDS011;30585;51.502;7.218;2024-03-23T07:03:29;7.23;;;2.60;;
23058;SDS011;30585;51.502;7.218;2024-03-23T07:05:57;7.20;;;3.57;;
23058;SDS011;30585;51.502;7.218;2024-03-23T07:08:24;7.20;;;3.67;;
23058;SDS011;30585;51.502;7.218;2024-03-23T07:10:50;6.10;;;3.07;;
23058;SDS011;30585;51.502;7.218;2024-03-23T07:13:17;3.53;;;3.00;;
23058;SDS011;30585;51.502;7.218;2024-03-23T07:15:44;9.27;;;4.17;;
23058;SDS011;30585;51.502;7.218;2024-03-23T07:18:17;6.17;;;3.63;;
23058;SDS011;30585;51.502;7.218;2024-03-23T07:20:51;8.63;;;3.97;;
23058;SDS011;30585;51.502;7.218;2024-03-23T07:23:18;8.60;;;3.03;;
23058;SDS011;30585;51.502;7.218;2024-03-23T07:25:44;5.77;;;3.97;;
23058;SDS011;30585;51.502;7.218;2024-03-23T07:28:11;9.63;;;3.47;;
23058;SDS011;30585;51.502;7.218;2024-03-23T07:30:37;9.30;;;3.93;;
23058;SDS011;30585;51.502;7.218;2024-03-23T07:33:05;8.00;;;3.47;;
23058;SDS011;30585;51.502;7.218;2024-03-23T07:35:31;5.97;;;3.07;;
23058;SDS011;30585;51.502;7.218;2024-03-23T07:37:58;11.67;;;3.03;;
23058;SDS011;30585;51.502;7.218;2024-03-23T07:40:30;8.00;;;3.23;;
23058;SDS011;30585;51.502;7.218;2024-03-23T07:42:57;8.83;;;3.23;;
23058;SDS011;30585;51.502;7.218;2024-03-23T07:45:23;8.13;;;3.30;;
23058;SDS011;30585;51.502;7.218;2024-03-23T07:47:50;6.87;;;3.23;;
23058;SDS011;30585;51.502;7.218;2024-03-23T07:50:17;4.17;;;2.73;;
23058;SDS011;30585;51.502;7.218;2024-03-23T07:52:44;13.40;;;3.67;;
23058;SDS011;30585;51.502;7.218;2024-03-23T07:55:10;6.43;;;3.17;;
23058;SDS011;30585;51.502;7.218;2024-03-23T07:57:37;4.57;;;3.17;;
23058;SDS011;30585;51.502;7.218;2024-03-23T08:00:03;11.70;;;3.70;;
23058;SDS011;30585;51.502;7.218;2024-03-23T08:02:31;3.67;;;2.37;;
23058;SDS011;30585;51.502;7.218;2024-03-23T08:04:57;14.80;;;2.97;;
23058;SDS011;30585;51.502;7.218;2024-03-23T08:07:25;9.03;;;3.07;;
23058;SDS011;30585;51.502;7.218;2024-03-23T08:09:51;9.13;;;3.17;;
23058;SDS011;30585;51.502;7.218;2024-03-23T08:12:18;9.50;;;2.87;;
23058;SDS011;30585;51.502;7.218;2024-03-23T08:14:44;10.53;;;2.93;;
23058;SDS011;30585;51.502;7.218;2024-03-23T08:17:11;8.23;;;2.73;;
23058;SDS011;30585;51.502;7.218;2024-03-23T08:19:37;7.03;;;2.50;;
23058;SDS011;30585;51.502;7.218;2024-03-23T08:22:03;7.20;;;2.50;;
23058;SDS011;30585;51.502;7.218;2024-03-23T08:24:31;9.07;;;3.00;;
23058;SDS011;30585;51.502;7.218;2024-03-23T08:26:57;3.60;;;2.23;;
23058;SDS011;30585;51.502;7.218;2024-03-23T08:29:23;4.47;;;2.03;;
23058;SDS011;30585;51.502;7.218;2024-03-23T08:31:50;2.43;;;1.53;;
23058;SDS011;30585;51.502;7.218;2024-03-23T08:34:16;4.27;;;1.47;;
23058;SDS011;30585;51.502;7.218;2024-03-23T08:36:42;7.33;;;2.13;;
23058;SDS011;30585;51.502;7.218;2024-03-23T08:39:09;8.73;;;2.10;;
23058;SDS011;30585;51.502;7.218;2024-03-23T08:41:37;6.17;;;1.70;;
23058;SDS011;30585;51.502;7.218;2024-03-23T08:44:03;6.60;;;2.43;;
23058;SDS011;30585;51.502;7.218;2024-03-23T08:46:30;3.43;;;1.60;;
23058;SDS011;30585;51.502;7.218;2024-03-23T08:48:55;4.57;;;1.33;;
23058;SDS011;30585;51.502;7.218;2024-03-23T08:51:22;6.33;;;2.10;;
23058;SDS011;30585;51.502;7.218;2024-03-23T08:53:49;4.60;;;1.47;;
23058;SDS011;30585;51.502;7.218;2024-03-23T08:56:15;4.00;;;1.90;;
23058;SDS011;30585;51.502;7.218;2024-03-23T08:58:44;4.33;;;1.43;;
23058;SDS011;30585;51.502;7.218;2024-03-23T09:01:10;8.47;;;2.00;;
23058;SDS011;30585;51.502;7.218;2024-03-23T09:03:38;6.50;;;1.70;;
23058;SDS011;30585;51.502;7.218;2024-03-23T09:06:06;6.03;;;2.10;;
23058;SDS011;30585;51.502;7.218;2024-03-23T09:08:33;6.23;;;2.07;;
23058;SDS011;30585;51.502;7.218;2024-03-23T09:11:03;8.43;;;2.27;;
23058;SDS011;30585;51.502;7.218;2024-03-23T09:13:31;4.40;;;1.27;;
23058;SDS011;30585;51.502;7.218;2024-03-23T09:15:58;2.20;;;1.63;;
23058;SDS011;30585;51.502;7.218;2024-03-23T09:18:25;3.27;;;1.20;;
23058;SDS011;30585;51.502;7.218;2024-03-23T09:20:51;8.53;;;1.93;;
23058;SDS011;30585;51.502;7.218;2024-03-23T09:23:19;5.17;;;1.77;;
23058;SDS011;30585;51.502;7.218;2024-03-23T09:25:45;3.83;;;1.30;;
23058;SDS011;30585;51.502;7.218;2024-03-23T09:28:12;2.07;;;1.33;;
23058;SDS011;30585;51.502;7.218;2024-03-23T09:30:38;2.90;;;1.40;;
23058;SDS011;30585;51.502;7.218;2024-03-23T09:33:09;5.57;;;1.57;;
23058;SDS011;30585;51.502;7.218;2024-03-23T09:35:36;4.10;;;1.10;;
23058;SDS011;30585;51.502;7.218;2024-03-23T09:38:03;6.70;;;1.33;;
23058;SDS011;30585;51.502;7.218;2024-03-23T09:40:29;6.57;;;2.00;;
23058;SDS011;30585;51.502;7.218;2024-03-23T09:42:56;1.90;;;0.97;;
23058;SDS011;30585;51.502;7.218;2024-03-23T09:45:26;3.70;;;0.90;;
23058;SDS011;30585;51.502;7.218;2024-03-23T09:47:54;1.53;;;1.17;;
23058;SDS011;30585;51.502;7.218;2024-03-23T09:50:21;1.97;;;1.17;;
23058;SDS011;30585;51.502;7.218;2024-03-23T09:52:48;2.70;;;1.30;;
23058;SDS011;30585;51.502;7.218;2024-03-23T09:55:14;2.60;;;1.33;;
23058;SDS011;30585;51.502;7.218;2024-03-23T09:57:41;4.97;;;0.93;;
23058;SDS011;30585;51.502;7.218;2024-03-23T10:00:07;6.67;;;1.17;;
23058;SDS011;30585;51.502;7.218;2024-03-23T10:02:37;2.03;;;1.20;;
23058;SDS011;30585;51.502;7.218;2024-03-23T10:05:03;5.13;;;1.73;;
23058;SDS011;30585;51.502;7.218;2024-03-23T10:07:32;3.07;;;1.40;;
23058;SDS011;30585;51.502;7.218;2024-03-23T10:09:59;8.20;;;1.80;;
23058;SDS011;30585;51.502;7.218;2024-03-23T10:12:39;4.67;;;1.60;;
23058;SDS011;30585;51.502;7.218;2024-03-23T10:15:15;2.57;;;1.47;;
23058;SDS011;30585;51.502;7.218;2024-03-23T10:17:43;2.03;;;1.63;;
23058;SDS011;30585;51.502;7.218;2024-03-23T10:20:11;7.63;;;1.73;;
23058;SDS011;30585;51.502;7.218;2024-03-23T10:22:38;6.33;;;1.27;;
23058;SDS011;30585;51.502;7.218;2024-03-23T10:25:09;7.57;;;1.37;;
23058;SDS011;30585;51.502;7.218;2024-03-23T10:27:36;2.90;;;1.00;;
23058;SDS011;30585;51.502;7.218;2024-03-23T10:30:10;9.67;;;1.60;;
23058;SDS011;30585;51.502;7.218;2024-03-23T10:32:37;6.17;;;1.20;;
23058;SDS011;30585;51.502;7.218;2024-03-23T10:35:14;6.23;;;1.10;;
23058;SDS011;30585;51.502;7.218;2024-03-23T10:37:42;1.13;;;1.03;;
23058;SDS011;30585;51.502;7.218;2024-03-23T10:40:10;0.67;;;0.50;;
23058;SDS011;30585;51.502;7.218;2024-03-23T10:42:37;1.73;;;0.70;;
23058;SDS011;30585;51.502;7.218;2024-03-23T10:45:04;1.83;;;0.80;;
23058;SDS011;30585;51.502;7.218;2024-03-23T10:47:31;1.33;;;0.77;;
23058;SDS011;30585;51.502;7.218;2024-03-23T10:49:58;3.60;;;0.73;;
23058;SDS011;30585;51.502;7.218;2024-03-23T10:52:24;2.37;;;0.90;;
23058;SDS011;30585;51.502;7.218;2024-03-23T10:54:52;1.33;;;0.67;;
23058;SDS011;30585;51.502;7.218;2024-03-23T10:57:19;1.43;;;0.77;;
23058;SDS011;30585;51.502;7.218;2024-03-23T10:59:49;1.33;;;0.53;;
23058;SDS011;30585;51.502;7.218;2024-03-23T11:02:18;0.60;;;0.40;;
23058;SDS011;30585;51.502;7.218;2024-03-23T11:04:46;3.60;;;0.70;;
23058;SDS011;30585;51.502;7.218;2024-03-23T11:07:29;2.50;;;0.53;;
23058;SDS011;30585;51.502;7.218;2024-03-23T11:09:58;1.90;;;0.50;;
23058;SDS011;30585;51.502;7.218;2024-03-23T11:12:26;0.50;;;0.40;;
23058;SDS011;30585;51.502;7.218;2024-03-23T11:14:56;1.50;;;0.43;;
23058;SDS011;30585;51.502;7.218;2024-03-23T11:17:25;2.43;;;0.40;;
23058;SDS011;30585;51.502;7.218;2024-03-23T11:19:53;0.87;;;0.33;;
23058;SDS011;30585;51.502;7.218;2024-03-23T11:22:39;1.60;;;0.60;;
23058;SDS011;30585;51.502;7.218;2024-03-23T11:25:15;1.47;;;0.60;;
23058;SDS011;30585;51.502;7.218;2024-03-23T11:27:42;0.70;;;0.30;;
23058;SDS011;30585;51.502;7.218;2024-03-23T11:30:13;4.50;;;0.40;;
23058;SDS011;30585;51.502;7.218;2024-03-23T11:32:40;0.50;;;0.50;;
23058;SDS011;30585;51.502;7.218;2024-03-23T11:35:08;0.30;;;0.30;;
23058;SDS011;30585;51.502;7.218;2024-03-23T11:37:36;0.63;;;0.37;;
23058;SDS011;30585;51.502;7.218;2024-03-23T11:42:55;2.20;;;0.40;;
23058;SDS011;30585;51.502;7.218;2024-03-23T11:45:22;0.50;;;0.20;;
23058;SDS011;30585;51.502;7.218;2024-03-23T11:47:48;1.10;;;0.60;;
23058;SDS011;30585;51.502;7.218;2024-03-23T11:50:19;1.63;;;0.70;;
23058;SDS011;30585;51.502;7.218;2024-03-23T11:52:46;0.77;;;0.77;;
23058;SDS011;30585;51.502;7.218;2024-03-23T11:55:13;2.00;;;0.93;;
23058;SDS011;30585;51.502;7.218;2024-03-23T11:57:40;1.23;;;0.50;;
23058;SDS011;30585;51.502;7.218;2024-03-23T12:00:20;0.83;;;0.67;;
23058;SDS011;30585;51.502;7.218;2024-03-23T12:02:46;1.57;;;0.67;;
23058;SDS011;30585;51.502;7.218;2024-03-23T12:05:16;1.20;;;0.70;;
23058;SDS011;30585;51.502;7.218;2024-03-23T12:07:42;2.17;;;0.90;;
23058;SDS011;30585;51.502;7.218;2024-03-23T12:10:09;2.50;;;0.87;;
23058;SDS011;30585;51.502;7.218;2024-03-23T12:12:35;3.53;;;0.80;;
23058;SDS011;30585;51.502;7.218;2024-03-23T12:15:04;2.93;;;0.77;;
23058;SDS011;30585;51.502;7.218;2024-03-23T12:17:31;1.20;;;0.90;;
23058;SDS011;30585;51.502;7.218;2024-03-23T12:20:00;2.67;;;0.60;;
23058;SDS011;30585;51.502;7.218;2024-03-23T12:22:26;1.17;;;0.60;;
23058;SDS011;30585;51.502;7.218;2024-03-23T12:24:54;4.20;;;1.23;;
23058;SDS011;30585;51.502;7.218;2024-03-23T12:27:20;1.03;;;0.57;;
23058;SDS011;30585;51.502;7.218;2024-03-23T12:29:47;1.70;;;0.53;;
23058;SDS011;30585;51.502;7.218;2024-03-23T12:32:15;0.80;;;0.70;;
23058;SDS011;30585;51.502;7.218;2024-03-23T12:34:41;0.63;;;0.40;;
23058;SDS011;30585;51.502;7.218;2024-03-23T12:37:08;2.03;;;0.50;;
23058;SDS011;30585;51.502;7.218;2024-03-23T12:39:35;3.00;;;0.47;;
23058;SDS011;30585;51.502;7.218;2024-03-23T12:42:02;1.20;;;0.40;;
23058;SDS011;30585;51.502;7.218;2024-03-23T12:44:29;0.90;;;0.53;;
23058;SDS011;30585;51.502;7.218;2024-03-23T12:46:55;1.30;;;0.60;;
23058;SDS011;30585;51.502;7.218;2024-03-23T12:49:23;0.60;;;0.50;;
23058;SDS011;30585;51.502;7.218;2024-03-23T12:51:53;1.90;;;0.30;;
23058;SDS011;30585;51.502;7.218;2024-03-23T12:54:21;1.63;;;0.53;;
23058;SDS011;30585;51.502;7.218;2024-03-23T12:56:47;1.90;;;0.83;;
23058;SDS011;30585;51.502;7.218;2024-03-23T12:59:13;0.93;;;0.70;;
23058;SDS011;30585;51.502;7.218;2024-03-23T13:01:39;4.43;;;0.70;;
23058;SDS011;30585;51.502;7.218;2024-03-23T13:04:06;4.17;;;0.90;;
23058;SDS011;30585;51.502;7.218;2024-03-23T13:06:33;1.70;;;0.63;;
23058;SDS011;30585;51.502;7.218;2024-03-23T13:09:00;3.97;;;0.47;;
23058;SDS011;30585;51.502;7.218;2024-03-23T13:11:26;2.50;;;0.77;;
23058;SDS011;30585;51.502;7.218;2024-03-23T13:13:53;1.20;;;0.50;;
23058;SDS011;30585;51.502;7.218;2024-03-23T13:16:19;3.83;;;1.10;;
23058;SDS011;30585;51.502;7.218;2024-03-23T13:18:46;1.47;;;0.90;;
23058;SDS011;30585;51.502;7.218;2024-03-23T13:21:12;1.43;;;0.60;;
23058;SDS011;30585;51.502;7.218;2024-03-23T13:23:40;0.57;;;0.33;;
23058;SDS011;30585;51.502;7.218;2024-03-23T13:26:07;0.73;;;0.53;;
23058;SDS011;30585;51.502;7.218;2024-03-23T13:28:34;1.53;;;0.80;;
23058;SDS011;30585;51.502;7.218;2024-03-23T13:31:01;2.63;;;0.53;;
23058;SDS011;30585;51.502;7.218;2024-03-23T13:33:29;0.77;;;0.70;;
23058;SDS011;30585;51.502;7.218;2024-03-23T13:35:55;1.93;;;0.80;;
23058;SDS011;30585;51.502;7.218;2024-03-23T13:38:22;0.80;;;0.60;;
23058;SDS011;30585;51.502;7.218;2024-03-23T13:40:50;0.83;;;0.80;;
23058;SDS011;30585;51.502;7.218;2024-03-23T13:43:18;0.13;;;0.13;;
23058;SDS011;30585;51.502;7.218;2024-03-23T13:45:44;2.60;;;0.40;;
23058;SDS011;30585;51.502;7.218;2024-03-23T13:48:11;0.50;;;0.27;;
23058;SDS011;30585;51.502;7.218;2024-03-23T13:50:37;0.27;;;0.20;;
23058;SDS011;30585;51.502;7.218;2024-03-23T13:53:04;0.37;;;0.30;;
23058;SDS011;30585;51.502;7.218;2024-03-23T13:55:29;0.60;;;0.30;;
23058;SDS011;30585;51.502;7.218;2024-03-23T13:57:58;0.40;;;0.37;;
23058;SDS011;30585;51.502;7.218;2024-03-23T14:00:24;1.37;;;0.50;;
23058;SDS011;30585;51.502;7.218;2024-03-23T14:02:50;3.27;;;0.47;;
23058;SDS011;30585;51.502;7.218;2024-03-23T14:05:16;0.63;;;0.50;;
23058;SDS011;30585;51.502;7.218;2024-03-23T14:07:43;1.10;;;0.73;;
23058;SDS011;30585;51.502;7.218;2024-03-23T14:10:09;1.20;;;0.77;;
23058;SDS011;30585;51.502;7.218;2024-03-23T14:12:37;5.00;;;0.90;;
23058;SDS011;30585;51.502;7.218;2024-03-23T14:15:06;1.30;;;0.60;;
23058;SDS011;30585;51.502;7.218;2024-03-23T14:17:33;3.93;;;0.93;;
23058;SDS011;30585;51.502;7.218;2024-03-23T14:19:59;0.63;;;0.53;;
23058;SDS011;30585;51.502;7.218;2024-03-23T14:22:26;2.67;;;1.27;;
23058;SDS011;30585;51.502;7.218;2024-03-23T14:24:52;2.10;;;0.90;;
23058;SDS011;30585;51.502;7.218;2024-03-23T14:27:19;5.13;;;0.67;;
23058;SDS011;30585;51.502;7.218;2024-03-23T14:29:45;0.90;;;0.53;;
23058;SDS011;30585;51.502;7.218;2024-03-23T14:32:14;1.27;;;0.60;;
23058;SDS011;30585;51.502;7.218;2024-03-23T14:34:40;0.80;;;0.50;;
23058;SDS011;30585;51.502;7.218;2024-03-23T14:37:07;3.60;;;0.80;;
23058;SDS011;30585;51.502;7.218;2024-03-23T14:39:32;3.90;;;1.53;;
23058;SDS011;30585;51.502;7.218;2024-03-23T14:42:00;0.43;;;0.40;;
23058;SDS011;30585;51.502;7.218;2024-03-23T14:44:26;0.30;;;0.20;;
23058;SDS011;30585;51.502;7.218;2024-03-23T14:46:53;0.77;;;0.50;;
23058;SDS011;30585;51.502;7.218;2024-03-23T14:49:21;0.53;;;0.50;;
23058;SDS011;30585;51.502;7.218;2024-03-23T14:51:49;0.70;;;0.60;;
23058;SDS011;30585;51.502;7.218;2024-03-23T14:54:15;0.33;;;0.30;;
23058;SDS011;30585;51.502;7.218;2024-03-23T14:56:42;0.23;;;0.23;;
23058;SDS011;30585;51.502;7.218;2024-03-23T14:59:08;1.90;;;0.40;;
23058;SDS011;30585;51.502;7.218;2024-03-23T15:01:34;3.80;;;0.47;;
23058;SDS011;30585;51.502;7.218;2024-03-23T15:04:00;1.30;;;0.40;;
23058;SDS011;30585;51.502;7.218;2024-03-23T15:06:30;2.00;;;0.60;;
23058;SDS011;30585;51.502;7.218;2024-03-23T15:08:56;1.70;;;0.53;;
23058;SDS011;30585;51.502;7.218;2024-03-23T15:11:23;4.73;;;0.57;;
23058;SDS011;30585;51.502;7.218;2024-03-23T15:13:49;0.20;;;0.20;;
23058;SDS011;30585;51.502;7.218;2024-03-23T15:16:16;2.80;;;0.50;;
23058;SDS011;30585;51.502;7.218;2024-03-23T15:18:43;0.93;;;0.50;;
23058;SDS011;30585;51.502;7.218;2024-03-23T15:21:10;0.40;;;0.30;;
23058;SDS011;30585;51.502;7.218;2024-03-23T15:23:37;2.53;;;0.67;;
23058;SDS011;30585;51.502;7.218;2024-03-23T15:26:04;0.10;;;0.10;;
23058;SDS011;30585;51.502;7.218;2024-03-23T15:28:31;2.83;;;0.50;;
23058;SDS011;30585;51.502;7.218;2024-03-23T15:31:07;0.63;;;0.30;;
23058;SDS011;30585;51.502;7.218;2024-03-23T15:33:34;1.67;;;0.30;;
23058;SDS011;30585;51.502;7.218;2024-03-23T15:36:01;4.40;;;0.70;;
23058;SDS011;30585;51.502;7.218;2024-03-23T15:38:27;4.33;;;0.60;;
23058;SDS011;30585;51.502;7.218;2024-03-23T15:40:55;3.13;;;0.43;;
23058;SDS011;30585;51.502;7.218;2024-03-23T15:43:21;0.83;;;0.40;;